createdAt,value
2023-05-22T00:00:23.571Z,6.00
2023-05-22T00:03:32.255Z,6.10
2023-05-22T00:06:41.183Z,6.40
2023-05-22T00:09:49.730Z,6.70
2023-05-22T00:12:58.552Z,6.70
2023-05-22T00:16:07.625Z,6.80
2023-05-22T00:19:16.095Z,6.20
2023-05-22T00:22:24.273Z,7.00
2023-05-22T00:25:33.667Z,6.90
2023-05-22T00:28:42.297Z,7.40
2023-05-22T00:31:50.597Z,6.90
2023-05-22T00:35:00.489Z,6.60
2023-05-22T00:38:08.697Z,6.50
2023-05-22T00:41:17.284Z,5.70
2023-05-22T00:44:25.419Z,5.70
2023-05-22T00:47:35.621Z,5.70
2023-05-22T00:50:44.841Z,5.60
2023-05-22T00:53:52.519Z,5.50
2023-05-22T00:57:02.862Z,5.50
2023-05-22T01:00:11.036Z,5.30
2023-05-22T01:03:19.607Z,5.00
2023-05-22T01:06:29.640Z,5.60
2023-05-22T01:09:38.535Z,5.40
2023-05-22T01:12:46.226Z,4.80
2023-05-22T01:15:56.246Z,5.30
2023-05-22T01:19:04.403Z,5.30
2023-05-22T01:22:12.906Z,5.30
2023-05-22T01:25:21.365Z,5.50
2023-05-22T01:28:30.912Z,5.90
2023-05-22T01:31:38.890Z,5.40
2023-05-22T01:34:47.002Z,5.60
2023-05-22T01:37:56.780Z,5.50
2023-05-22T01:41:05.301Z,5.70
2023-05-22T01:44:13.484Z,5.40
2023-05-22T01:47:23.463Z,5.70
2023-05-22T01:50:31.023Z,6.10
2023-05-22T01:53:40.009Z,6.30
2023-05-22T01:56:49.837Z,6.30
2023-05-22T01:59:59.004Z,6.10
2023-05-22T02:03:07.803Z,6.10
2023-05-22T02:06:17.971Z,6.30
2023-05-22T02:09:26.467Z,5.90
2023-05-22T02:12:34.566Z,5.40
2023-05-22T02:15:42.707Z,5.30
2023-05-22T02:18:52.309Z,5.80
2023-05-22T02:22:00.413Z,5.20
2023-05-22T02:25:08.979Z,4.40
2023-05-22T02:28:18.394Z,4.80
2023-05-22T02:31:26.943Z,4.80
2023-05-22T02:34:35.524Z,4.80
2023-05-22T02:37:44.964Z,4.80
2023-05-22T02:40:52.979Z,4.20
2023-05-22T02:44:01.184Z,4.70
2023-05-22T02:47:10.694Z,4.00
2023-05-22T02:50:18.684Z,4.30
2023-05-22T02:53:28.142Z,4.10
2023-05-22T02:56:35.758Z,4.70
2023-05-22T02:59:46.353Z,4.60
2023-05-22T03:02:54.655Z,4.50
2023-05-22T03:06:02.897Z,4.50
2023-05-22T03:09:13.398Z,4.70
2023-05-22T03:12:22.701Z,4.20
2023-05-22T03:15:30.292Z,4.70
2023-05-22T03:18:40.572Z,4.90
2023-05-22T03:21:49.146Z,4.90
2023-05-22T03:24:57.834Z,4.70
2023-05-22T03:28:08.019Z,4.80
2023-05-22T03:31:16.573Z,5.00
2023-05-22T03:34:24.317Z,5.10
2023-05-22T03:37:34.179Z,5.50
2023-05-22T03:40:43.341Z,4.90
2023-05-22T03:43:51.592Z,4.40
2023-05-22T03:46:59.632Z,4.70
2023-05-22T03:50:09.109Z,4.70
2023-05-22T03:53:16.730Z,5.20
2023-05-22T03:56:25.721Z,5.00
2023-05-22T03:59:35.656Z,5.20
2023-05-22T04:02:43.410Z,4.90
2023-05-22T04:05:52.595Z,5.00
2023-05-22T04:09:02.898Z,4.80
2023-05-22T04:12:11.642Z,5.40
2023-05-22T04:15:20.325Z,5.30
2023-05-22T04:18:30.587Z,5.00
2023-05-22T04:21:39.517Z,4.30
2023-05-22T04:24:47.841Z,4.70
2023-05-22T04:27:57.266Z,4.10
2023-05-22T04:31:06.754Z,4.40
2023-05-22T04:34:15.911Z,4.40
2023-05-22T04:37:24.162Z,4.20
2023-05-22T04:40:34.271Z,4.60
2023-05-22T04:43:42.374Z,4.50
2023-05-22T04:46:51.146Z,4.30
2023-05-22T04:50:00.995Z,4.10
2023-05-22T04:53:09.669Z,3.90
2023-05-22T04:56:31.973Z,4.20
2023-05-22T04:59:25.668Z,4.10
2023-05-22T05:02:34.407Z,4.10
2023-05-22T05:05:42.574Z,4.50
2023-05-22T05:08:52.069Z,4.40
2023-05-22T05:12:00.648Z,4.60
2023-05-22T05:15:08.827Z,4.30
2023-05-22T05:18:17.014Z,4.20
2023-05-22T05:21:26.488Z,4.30
2023-05-22T05:24:35.451Z,3.70
2023-05-22T05:27:43.726Z,4.10
2023-05-22T05:30:53.679Z,3.90
2023-05-22T05:34:02.200Z,3.80
2023-05-22T05:37:09.803Z,4.50
2023-05-22T05:40:19.653Z,4.00
2023-05-22T05:43:27.669Z,3.90
2023-05-22T05:46:36.473Z,4.10
2023-05-22T05:49:46.188Z,3.90
2023-05-22T05:52:54.665Z,3.40
2023-05-22T05:56:03.406Z,3.70
2023-05-22T05:59:12.111Z,3.60
2023-05-22T06:02:22.747Z,3.70
2023-05-22T06:05:30.564Z,4.40
2023-05-22T06:08:38.830Z,3.60
2023-05-22T06:11:39.200Z,3.80
2023-05-22T06:14:47.238Z,4.20
2023-05-22T06:17:55.274Z,3.90
2023-05-22T06:21:05.331Z,3.60
2023-05-22T06:24:13.443Z,3.90
2023-05-22T06:27:21.744Z,3.70
2023-05-22T06:30:40.119Z,3.70
2023-05-22T06:33:37.747Z,4.10
2023-05-22T06:36:46.604Z,3.70
2023-05-22T06:39:54.699Z,3.90
2023-05-22T06:43:04.326Z,3.90
2023-05-22T06:46:13.119Z,3.80
2023-05-22T06:49:21.860Z,3.60
2023-05-22T06:52:31.842Z,4.40
2023-05-22T06:55:39.584Z,4.10
2023-05-22T06:58:48.163Z,4.40
2023-05-22T07:01:59.492Z,3.90
2023-05-22T07:05:08.184Z,4.00
2023-05-22T07:08:16.857Z,4.30
2023-05-22T07:11:26.831Z,4.20
2023-05-22T07:14:35.091Z,3.70
2023-05-22T07:17:43.762Z,4.00
2023-05-22T07:20:53.256Z,3.90
2023-05-22T07:24:01.393Z,4.10
2023-05-22T07:27:09.769Z,3.90
2023-05-22T07:30:18.331Z,3.90
2023-05-22T07:33:27.814Z,4.40
2023-05-22T07:36:36.471Z,4.10
2023-05-22T07:39:44.650Z,4.10
2023-05-22T07:42:54.816Z,4.00
2023-05-22T07:46:04.020Z,4.30
2023-05-22T07:49:12.652Z,4.50
2023-05-22T07:52:21.896Z,4.10
2023-05-22T07:55:30.560Z,4.10
2023-05-22T07:58:38.203Z,4.40
2023-05-22T08:01:48.179Z,3.90
2023-05-22T08:04:57.469Z,3.80
2023-05-22T08:08:05.725Z,3.90
2023-05-22T08:11:13.707Z,3.80
2023-05-22T08:14:13.957Z,4.10
2023-05-22T08:17:22.685Z,4.10
2023-05-22T08:20:30.454Z,3.90
2023-05-22T08:23:30.788Z,4.00
2023-05-22T08:26:38.979Z,4.00
2023-05-22T08:29:46.964Z,3.90
2023-05-22T08:32:56.879Z,4.50
2023-05-22T08:36:05.288Z,4.10
2023-05-22T08:39:13.339Z,5.40
2023-05-22T08:42:22.988Z,4.00
2023-05-22T08:45:31.589Z,4.20
2023-05-22T08:48:39.322Z,4.00
2023-05-22T08:51:48.005Z,3.70
2023-05-22T08:54:58.702Z,4.00
2023-05-22T08:58:06.900Z,4.20
2023-05-22T09:01:14.973Z,3.70
2023-05-22T09:04:24.930Z,3.90
2023-05-22T09:07:33.182Z,3.90
2023-05-22T09:10:41.582Z,3.80
2023-05-22T09:13:51.636Z,4.00
2023-05-22T09:16:59.862Z,4.00
2023-05-22T09:20:07.593Z,4.20
2023-05-22T09:23:17.136Z,4.30
2023-05-22T09:26:25.735Z,4.30
2023-05-22T09:29:33.725Z,4.20
2023-05-22T09:32:44.251Z,3.80
2023-05-22T09:35:52.504Z,4.20
2023-05-22T09:39:00.585Z,4.20
2023-05-22T09:42:09.559Z,4.30
2023-05-22T09:45:18.982Z,3.70
2023-05-22T09:48:19.709Z,4.30
2023-05-22T09:51:28.429Z,4.60
2023-05-22T09:54:38.372Z,4.40
2023-05-22T09:57:46.489Z,4.10
2023-05-22T10:00:54.629Z,4.90
2023-05-22T10:04:04.310Z,4.60
2023-05-22T10:07:12.648Z,4.30
2023-05-22T10:10:20.939Z,4.50
2023-05-22T10:13:30.646Z,4.10
2023-05-22T10:16:38.791Z,4.30
2023-05-22T10:19:46.962Z,4.10
2023-05-22T10:22:56.048Z,4.20
2023-05-22T10:26:05.495Z,4.40
2023-05-22T10:29:14.273Z,4.50
2023-05-22T10:32:22.169Z,4.40
2023-05-22T10:36:10.808Z,3.90
2023-05-22T10:39:18.558Z,3.90
2023-05-22T10:42:27.755Z,4.70
2023-05-22T10:45:37.772Z,3.90
2023-05-22T10:48:45.896Z,4.10
2023-05-22T10:51:53.970Z,4.20
2023-05-22T10:55:03.951Z,3.90
2023-05-22T10:58:12.659Z,4.40
2023-05-22T11:01:20.468Z,4.40
2023-05-22T11:04:30.962Z,4.00
2023-05-22T11:07:40.226Z,3.90
2023-05-22T11:10:48.044Z,4.10
2023-05-22T11:13:58.937Z,3.90
2023-05-22T11:17:07.980Z,3.90
2023-05-22T11:20:16.372Z,4.00
2023-05-22T11:23:24.966Z,4.00
2023-05-22T11:26:34.513Z,4.40
2023-05-22T11:29:42.492Z,3.70
2023-05-22T11:32:51.101Z,4.10
2023-05-22T11:36:01.194Z,3.70
2023-05-22T11:39:08.946Z,4.30
2023-05-22T11:42:16.988Z,3.90
2023-05-22T11:45:27.126Z,3.60
2023-05-22T11:48:35.789Z,3.60
2023-05-22T11:51:43.786Z,3.90
2023-05-22T11:54:53.455Z,4.30
2023-05-22T11:58:01.942Z,3.80
2023-05-22T12:01:10.571Z,3.80
2023-05-22T12:04:18.781Z,3.60
2023-05-22T12:07:29.048Z,3.60
2023-05-22T12:10:37.819Z,4.30
2023-05-22T12:13:46.467Z,3.80
2023-05-22T12:16:55.514Z,3.50
2023-05-22T12:20:03.954Z,3.20
2023-05-22T12:23:12.712Z,3.70
2023-05-22T12:26:22.205Z,3.30
2023-05-22T12:29:30.324Z,3.30
2023-05-22T12:32:39.358Z,3.00
2023-05-22T12:35:49.233Z,3.90
2023-05-22T12:38:57.677Z,3.50
2023-05-22T12:42:06.253Z,3.20
2023-05-22T12:45:15.835Z,3.30
2023-05-22T12:48:24.744Z,3.10
2023-05-22T12:51:33.051Z,3.50
2023-05-22T12:54:41.257Z,3.40
2023-05-22T12:57:51.128Z,3.10
2023-05-22T13:00:59.588Z,3.50
2023-05-22T13:04:07.423Z,3.20
2023-05-22T13:07:18.207Z,2.90
2023-05-22T13:10:26.036Z,3.40
2023-05-22T13:13:35.601Z,3.20
2023-05-22T13:16:45.470Z,3.40
2023-05-22T13:19:53.978Z,3.90
2023-05-22T13:23:02.336Z,3.30
2023-05-22T13:26:11.973Z,3.30
2023-05-22T13:29:20.635Z,3.20
2023-05-22T13:32:28.540Z,3.40
